createdAt,value
2018-08-10T01:04:57.931Z,21.65
2018-08-10T01:07:26.627Z,21.53
2018-08-10T01:09:55.176Z,21.75
2018-08-10T01:12:23.790Z,21.97
2018-08-10T01:14:52.361Z,22.12
2018-08-10T01:17:21.389Z,22.20
2018-08-10T01:19:49.936Z,22.28
2018-08-10T01:22:18.529Z,22.37
2018-08-10T01:24:47.112Z,22.50
2018-08-10T01:27:20.917Z,22.63
2018-08-10T01:29:49.654Z,22.71
2018-08-10T01:32:18.367Z,22.79
2018-08-10T01:34:46.962Z,22.50
2018-08-10T01:37:15.642Z,22.52
2018-08-10T01:39:44.209Z,22.37
2018-08-10T01:42:12.801Z,22.17
2018-08-10T01:44:41.389Z,22.30
2018-08-10T01:47:10.556Z,22.41
2018-08-10T01:49:39.136Z,22.42
2018-08-10T01:52:07.770Z,22.46
2018-08-10T01:54:36.842Z,22.43
2018-08-10T01:57:05.706Z,22.38
2018-08-10T01:59:34.320Z,22.07
2018-08-10T02:02:02.907Z,21.85
2018-08-10T02:04:31.544Z,21.75
2018-08-10T02:07:02.701Z,21.74
2018-08-10T02:09:31.603Z,21.56
2018-08-10T02:12:00.216Z,21.57
2018-08-10T02:14:29.002Z,21.71
2018-08-10T02:16:57.587Z,21.59
2018-08-10T02:19:26.331Z,21.80
2018-08-10T02:21:55.052Z,21.88
2018-08-10T02:24:23.644Z,21.87
2018-08-10T02:26:52.688Z,21.92
2018-08-10T02:29:21.324Z,21.86
2018-08-10T02:31:49.912Z,21.96
2018-08-10T02:34:18.661Z,22.05
2018-08-10T02:36:47.239Z,22.03
2018-08-10T02:39:15.807Z,22.07
2018-08-10T02:41:44.867Z,22.13
2018-08-10T02:44:13.493Z,22.13
2018-08-10T02:46:42.101Z,21.97
2018-08-10T02:49:10.904Z,22.12
2018-08-10T02:51:39.849Z,22.13
2018-08-10T02:54:08.853Z,22.05
2018-08-10T02:56:37.431Z,21.97
2018-08-10T02:59:06.115Z,21.90
2018-08-10T03:01:34.815Z,21.96
2018-08-10T03:18:15.492Z,22.16
2018-08-10T03:20:44.154Z,22.12
2018-08-10T03:23:13.194Z,22.15
2018-08-10T03:25:41.772Z,22.16
2018-08-10T03:28:10.399Z,22.21
2018-08-10T03:30:39.080Z,22.27
2018-08-10T03:33:07.638Z,22.20
2018-08-10T03:35:36.179Z,22.22
2018-08-10T03:38:04.871Z,22.22
2018-08-10T03:40:33.431Z,22.29
2018-08-10T03:43:02.030Z,22.23
2018-08-10T03:45:30.646Z,22.11
2018-08-10T03:47:59.315Z,22.14
2018-08-10T03:50:27.920Z,22.15
2018-08-10T03:52:56.520Z,22.08
2018-08-10T03:55:25.156Z,22.13
2018-08-10T03:57:53.751Z,22.17
2018-08-10T04:00:22.368Z,22.21
2018-08-10T04:02:51.785Z,22.20
2018-08-10T04:05:20.352Z,22.21
2018-08-10T04:07:51.411Z,22.26
2018-08-10T04:10:20.139Z,22.23
2018-08-10T04:12:48.696Z,22.24
2018-08-10T04:20:24.787Z,22.16
2018-08-10T04:22:53.347Z,21.68
2018-08-10T04:25:21.941Z,21.82
2018-08-10T04:27:50.572Z,21.82
2018-08-10T04:30:19.287Z,21.79
2018-08-10T04:32:47.880Z,21.88
2018-08-10T04:35:16.847Z,21.58
2018-08-10T04:37:45.508Z,21.58
2018-08-10T04:40:14.117Z,21.72
2018-08-10T04:42:42.667Z,21.57
2018-08-10T04:45:11.680Z,21.78
2018-08-10T04:47:44.529Z,21.49
2018-08-10T04:50:13.133Z,21.56
2018-08-10T04:52:41.747Z,21.53
2018-08-10T04:55:10.782Z,21.41
2018-08-10T04:57:39.619Z,21.47
2018-08-10T05:00:11.028Z,21.53
2018-08-10T05:02:39.707Z,21.75
2018-08-10T05:27:54.436Z,22.84
2018-08-10T05:35:39.785Z,23.03
2018-08-10T05:38:09.340Z,22.99
2018-08-10T05:54:06.937Z,23.15
2018-08-10T05:58:02.855Z,22.78
2018-08-10T06:00:50.876Z,22.97
2018-08-10T06:09:44.407Z,22.76
2018-08-10T06:13:53.175Z,22.65
2018-08-10T06:16:42.008Z,22.77
2018-08-10T06:22:02.403Z,23.00
2018-08-10T06:24:31.029Z,23.02
2018-08-10T06:30:01.001Z,23.19
2018-08-10T06:32:40.702Z,23.13
2018-08-10T06:35:09.889Z,22.97
2018-08-10T06:37:38.743Z,23.12
2018-08-10T06:40:07.571Z,23.23
2018-08-10T06:42:36.308Z,23.46
2018-08-10T06:45:05.176Z,23.48
2018-08-10T06:47:33.587Z,23.68
2018-08-10T06:50:02.187Z,23.87
2018-08-10T06:52:30.760Z,23.93
2018-08-10T06:54:59.299Z,23.83
2018-08-10T06:57:27.900Z,23.84
2018-08-10T06:59:56.453Z,23.92
2018-08-10T07:25:20.909Z,23.95
2018-08-10T07:27:49.601Z,24.16
2018-08-10T07:33:39.421Z,24.03
2018-08-10T07:50:41.760Z,25.02
2018-08-10T07:53:10.615Z,25.08
2018-08-10T07:55:39.284Z,25.23
2018-08-10T07:58:07.896Z,25.48
2018-08-10T08:06:08.789Z,25.89
2018-08-10T08:20:25.904Z,26.34
2018-08-10T08:23:04.100Z,25.47
2018-08-10T08:25:32.731Z,25.66
2018-08-10T08:28:01.665Z,25.74
2018-08-10T08:30:30.283Z,25.58
2018-08-10T08:36:10.260Z,26.00
2018-08-10T08:38:52.664Z,26.14
2018-08-10T08:41:21.250Z,26.14
2018-08-10T08:46:05.850Z,26.19
2018-08-10T08:48:35.767Z,25.52
2018-08-10T08:51:07.029Z,25.45
2018-08-10T08:53:35.702Z,25.53
2018-08-10T08:56:09.771Z,25.68
2018-08-10T08:58:38.896Z,25.54
2018-08-10T09:01:08.576Z,25.69
2018-08-10T09:03:48.169Z,25.58
2018-08-10T09:06:16.760Z,25.70
2018-08-10T09:08:57.347Z,25.73
2018-08-10T09:14:49.914Z,25.70
2018-08-10T09:47:43.113Z,25.39
2018-08-10T09:50:48.702Z,25.41
2018-08-10T09:53:17.304Z,25.10
2018-08-10T09:55:45.884Z,24.92
2018-08-10T09:58:20.390Z,24.82
2018-08-10T10:00:54.976Z,24.70
2018-08-10T10:03:25.098Z,24.80
2018-08-10T10:05:55.380Z,24.83
2018-08-10T10:11:14.164Z,25.25
2018-08-10T10:13:43.439Z,25.39
2018-08-10T10:16:11.992Z,25.61
2018-08-10T10:18:40.763Z,25.70
2018-08-10T10:21:09.496Z,25.81
2018-08-10T10:24:08.852Z,25.85
2018-08-10T10:26:37.708Z,25.91
2018-08-10T10:29:06.908Z,25.83
2018-08-10T10:31:35.563Z,25.86
2018-08-10T10:34:04.412Z,25.93
2018-08-10T10:36:33.197Z,25.61
2018-08-10T10:39:02.054Z,25.87
2018-08-10T10:41:30.663Z,25.84
2018-08-10T10:43:59.539Z,25.98
2018-08-10T10:46:28.143Z,26.02
2018-08-10T10:48:56.724Z,26.06
2018-08-10T10:51:25.327Z,25.92
2018-08-10T10:53:53.923Z,25.64
2018-08-10T10:56:37.447Z,25.49
2018-08-10T10:59:06.008Z,25.60
2018-08-10T11:01:34.589Z,25.86
2018-08-10T11:04:03.248Z,26.13
2018-08-10T11:06:31.844Z,26.28
2018-08-10T11:09:00.412Z,26.45
2018-08-10T11:11:29.384Z,26.34
2018-08-10T11:13:58.003Z,26.26
2018-08-10T11:16:26.647Z,26.39
2018-08-10T11:18:55.403Z,26.42
2018-08-10T11:21:24.042Z,26.49
2018-08-10T11:23:52.815Z,26.57
2018-08-10T11:26:21.396Z,26.62
2018-08-10T11:28:49.982Z,26.54
2018-08-10T11:31:18.560Z,26.53
2018-08-10T11:33:47.237Z,26.37
2018-08-10T11:36:15.823Z,26.35
2018-08-10T11:38:44.389Z,26.30
2018-08-10T11:41:12.956Z,26.37
2018-08-10T11:43:41.680Z,26.23
2018-08-10T11:46:10.314Z,26.21
2018-08-10T11:48:38.876Z,25.97
2018-08-10T11:51:07.553Z,25.85
2018-08-10T11:53:36.416Z,25.78
2018-08-10T11:56:05.066Z,25.66
2018-08-10T11:58:33.848Z,25.41
2018-08-10T12:01:02.738Z,25.35
2018-08-10T12:08:48.759Z,25.14
2018-08-10T12:28:44.139Z,24.94
2018-08-10T12:31:17.790Z,25.02
2018-08-10T12:33:46.344Z,24.98
2018-08-10T12:36:14.948Z,25.11
2018-08-10T12:38:43.516Z,25.34
2018-08-10T12:41:12.122Z,25.12
2018-08-10T12:59:25.959Z,25.23
2018-08-10T13:01:54.572Z,25.19
2018-08-10T13:06:35.351Z,24.93
2018-08-10T13:09:06.947Z,24.78
2018-08-10T13:11:35.616Z,24.83
2018-08-10T13:14:04.253Z,25.01
2018-08-10T13:16:32.872Z,25.02
2018-08-10T13:19:01.503Z,24.85
2018-08-10T13:21:30.179Z,24.43
2018-08-10T13:23:58.876Z,24.19
2018-08-10T13:26:27.425Z,23.90
2018-08-10T13:28:56.128Z,23.77
2018-08-10T13:31:24.805Z,23.49
2018-08-10T13:33:53.981Z,23.58
2018-08-10T13:36:22.587Z,23.52
2018-08-10T13:38:51.434Z,23.24
2018-08-10T13:41:20.021Z,23.28
2018-08-10T13:43:48.627Z,23.02
2018-08-10T13:46:17.393Z,23.13
2018-08-10T13:48:46.001Z,23.04
2018-08-10T13:51:14.580Z,23.20
2018-08-10T13:53:43.279Z,23.01
2018-08-10T13:56:11.854Z,23.04
2018-08-10T13:58:40.501Z,23.06
2018-08-10T14:01:09.064Z,23.08
2018-08-10T14:03:39.179Z,22.89
2018-08-10T14:06:08.632Z,22.65
2018-08-10T14:08:37.197Z,22.65
2018-08-10T14:11:05.785Z,22.59
2018-08-10T14:13:34.377Z,22.56
2018-08-10T14:16:03.194Z,22.14
2018-08-10T14:18:31.728Z,22.37
2018-08-10T14:21:00.698Z,22.25
2018-08-10T14:23:29.388Z,21.94
2018-08-10T14:25:57.952Z,21.95
2018-08-10T14:28:26.652Z,21.68
2018-08-10T14:30:55.323Z,21.73
2018-08-10T14:33:23.906Z,21.91
2018-08-10T14:35:52.545Z,22.03
2018-08-10T14:38:21.234Z,21.81
2018-08-10T14:40:49.820Z,21.73
2018-08-10T14:43:18.406Z,21.08
2018-08-10T14:45:47.087Z,21.12
2018-08-10T14:48:16.011Z,21.31
2018-08-10T14:50:44.571Z,21.16
2018-08-10T14:53:13.310Z,21.12
2018-08-10T14:55:42.265Z,21.16
2018-08-10T14:58:10.868Z,21.03
2018-08-10T15:00:39.603Z,20.94
2018-08-10T15:03:08.582Z,20.55
2018-08-10T15:05:37.798Z,20.47
2018-08-10T15:08:06.671Z,20.34
2018-08-10T15:10:35.405Z,20.29
2018-08-10T15:13:04.213Z,20.31
2018-08-10T15:15:32.735Z,19.98
2018-08-10T15:18:01.320Z,19.99
2018-08-10T15:20:29.922Z,19.91
2018-08-10T15:22:58.548Z,19.72
2018-08-10T15:25:27.199Z,19.55
2018-08-10T15:27:55.852Z,19.37
2018-08-10T15:30:24.477Z,19.31
2018-08-10T15:32:53.180Z,19.11
2018-08-10T15:35:21.820Z,18.89
2018-08-10T15:37:50.609Z,18.93
2018-08-10T15:40:20.245Z,18.92
2018-08-10T15:42:48.853Z,19.13
2018-08-10T15:45:18.105Z,19.34
2018-08-10T15:47:47.158Z,19.34
2018-08-10T15:50:15.812Z,19.25
2018-08-10T15:52:45.607Z,19.39
2018-08-10T15:55:14.957Z,19.57
2018-08-10T15:57:43.618Z,19.58
2018-08-10T16:00:18.908Z,19.56
2018-08-10T16:02:48.044Z,19.40
2018-08-10T16:05:17.505Z,19.37
2018-08-10T16:07:51.308Z,19.28
2018-08-10T16:10:19.883Z,18.96
2018-08-10T16:12:48.630Z,18.94
2018-08-10T16:15:18.505Z,19.07
2018-08-10T16:20:59.978Z,19.23
2018-08-10T16:23:29.160Z,19.04
2018-08-10T16:25:57.848Z,18.85
2018-08-10T16:28:26.793Z,18.74
2018-08-10T16:30:55.435Z,18.51
2018-08-10T16:33:24.080Z,18.44
2018-08-10T16:35:53.111Z,18.48
2018-08-10T16:38:21.748Z,18.53
2018-08-10T16:40:50.360Z,18.10
2018-08-10T16:43:18.932Z,18.04
2018-08-10T16:45:47.497Z,18.31
2018-08-10T16:48:16.199Z,18.25
2018-08-10T16:50:44.905Z,18.25
2018-08-10T16:53:20.255Z,18.32
2018-08-10T16:55:48.868Z,18.34
2018-08-10T16:58:17.448Z,18.40
2018-08-10T17:00:46.086Z,18.31
2018-08-10T17:03:14.727Z,18.46
2018-08-10T17:05:43.340Z,18.43
2018-08-10T17:08:11.937Z,18.55
2018-08-10T17:10:40.724Z,18.49
2018-08-10T17:13:09.965Z,18.40
2018-08-10T17:15:38.752Z,18.33
2018-08-10T17:18:07.325Z,18.32
2018-08-10T17:20:35.939Z,18.38
2018-08-10T17:23:04.616Z,18.33
2018-08-10T17:25:33.204Z,18.26
2018-08-10T17:28:01.838Z,18.33
2018-08-10T17:30:30.616Z,18.29
2018-08-10T17:32:59.215Z,18.41
2018-08-10T17:35:28.663Z,18.44
2018-08-10T17:37:57.239Z,18.63
2018-08-10T17:40:25.928Z,18.46
2018-08-10T17:42:54.542Z,18.09
2018-08-10T17:45:23.243Z,18.07
2018-08-10T17:47:51.811Z,18.12
2018-08-10T17:50:21.646Z,18.36
2018-08-10T17:52:51.653Z,18.30
2018-08-10T17:55:20.586Z,18.12
2018-08-10T17:57:49.320Z,18.11
2018-08-10T18:00:20.705Z,18.33
2018-08-10T18:02:49.923Z,18.22
2018-08-10T18:05:19.659Z,18.36
2018-08-10T18:07:49.144Z,18.36
2018-08-10T18:10:18.882Z,18.43
2018-08-10T18:12:47.768Z,18.40
2018-08-10T18:15:17.746Z,18.37
2018-08-10T18:17:47.262Z,18.39
2018-08-10T18:20:18.273Z,18.43
2018-08-10T18:22:48.155Z,18.20
2018-08-10T18:25:17.936Z,17.26
2018-08-10T18:27:47.468Z,17.97
2018-08-10T18:30:20.144Z,17.95
2018-08-10T18:32:49.229Z,18.10
2018-08-10T18:35:17.785Z,18.02
2018-08-10T18:37:47.182Z,17.99
2018-08-10T18:40:16.647Z,18.11
2018-08-10T18:42:46.499Z,18.10
2018-08-10T18:45:18.476Z,17.80
2018-08-10T18:47:47.135Z,17.82
2018-08-10T18:50:16.945Z,17.58
2018-08-10T18:52:45.763Z,17.62
2018-08-10T18:55:16.144Z,17.42
2018-08-10T18:57:44.789Z,17.32
2018-08-10T19:00:17.488Z,17.53
2018-08-10T19:02:46.367Z,17.70
2018-08-10T19:05:16.198Z,17.22
2018-08-10T19:07:45.656Z,17.31
2018-08-10T19:10:19.503Z,17.21
2018-08-10T19:12:48.215Z,17.42
2018-08-10T19:15:16.819Z,17.58
2018-08-10T19:17:45.540Z,17.39
2018-08-10T19:20:14.644Z,17.56
2018-08-10T19:22:43.330Z,17.29
2018-08-10T19:25:14.353Z,17.31
2018-08-10T19:27:42.920Z,17.16
2018-08-10T19:30:16.916Z,17.32
2018-08-10T19:32:46.421Z,17.36
2018-08-10T19:35:15.684Z,17.49
2018-08-10T19:37:44.487Z,17.42
2018-08-10T19:40:14.428Z,17.40
2018-08-10T19:42:43.078Z,17.24
2018-08-10T19:45:13.151Z,17.16
2018-08-10T19:47:42.047Z,17.26
2018-08-10T19:50:14.633Z,17.21
2018-08-10T19:52:43.331Z,17.37
2018-08-10T19:55:13.879Z,17.42
2018-08-10T19:57:42.480Z,17.39
2018-08-10T20:00:14.122Z,17.26
2018-08-10T20:02:43.836Z,17.38
2018-08-10T20:05:15.692Z,17.34
2018-08-10T20:07:47.730Z,17.47
2018-08-10T20:10:17.638Z,17.33
2018-08-10T20:12:46.308Z,17.22
2018-08-10T20:15:16.342Z,17.45
2018-08-10T20:17:45.045Z,17.55
2018-08-10T20:20:15.871Z,17.58
2018-08-10T20:22:44.880Z,17.55
2018-08-10T20:25:14.408Z,17.73
2018-08-10T20:27:43.051Z,17.83
2018-08-10T20:30:13.664Z,17.83
2018-08-10T20:32:42.434Z,17.86
2018-08-10T20:35:13.159Z,17.64
2018-08-10T20:37:42.383Z,17.58
2018-08-10T20:40:13.434Z,17.48
2018-08-10T20:42:42.061Z,17.47
2018-08-10T20:45:11.520Z,17.55
2018-08-10T20:47:40.153Z,17.44
2018-08-10T20:50:12.369Z,17.37
2018-08-10T20:52:41.273Z,17.16
2018-08-10T20:55:09.984Z,17.29
2018-08-10T20:57:38.564Z,17.38
2018-08-10T21:00:08.264Z,17.42
2018-08-10T21:02:36.955Z,17.35
2018-08-10T21:05:06.220Z,17.10
2018-08-10T21:07:35.312Z,17.14
2018-08-10T21:10:03.979Z,17.11
2018-08-10T21:12:32.703Z,17.29
2018-08-10T21:15:01.304Z,17.41
2018-08-10T21:17:29.937Z,17.46
2018-08-10T21:19:58.591Z,17.53
2018-08-10T21:22:27.185Z,17.63
2018-08-10T21:24:55.808Z,17.71
2018-08-10T21:27:24.991Z,17.79
2018-08-10T21:29:53.574Z,17.77
2018-08-10T21:32:23.121Z,17.86
2018-08-10T21:34:52.691Z,17.72
2018-08-10T21:37:21.465Z,17.75
2018-08-10T21:39:50.040Z,17.78
2018-08-10T21:42:18.992Z,17.66
2018-08-10T21:44:47.563Z,17.57
2018-08-10T21:47:16.379Z,17.67
2018-08-10T21:49:45.015Z,17.79
2018-08-10T21:52:13.701Z,17.86
2018-08-10T21:54:42.299Z,17.94
2018-08-10T21:57:11.015Z,17.96
2018-08-10T21:59:39.615Z,18.00
2018-08-10T22:02:09.999Z,17.85
2018-08-10T22:04:38.543Z,17.81
2018-08-10T22:07:09.914Z,17.75
2018-08-10T22:09:38.495Z,17.85
2018-08-10T22:12:07.172Z,17.90
2018-08-10T22:14:40.962Z,17.96
